createdAt,value
2023-01-25T00:01:40.174Z,2.30
2023-01-25T00:04:07.584Z,2.30
2023-01-25T00:06:35.019Z,2.30
2023-01-25T00:09:02.855Z,2.30
2023-01-25T00:11:30.680Z,2.30
2023-01-25T00:13:58.149Z,2.30
2023-01-25T00:16:25.636Z,2.30
2023-01-25T00:18:53.061Z,2.30
2023-01-25T00:21:24.230Z,2.30
2023-01-25T00:23:52.331Z,2.30
2023-01-25T00:26:20.472Z,2.30
2023-01-25T00:28:52.733Z,2.20
2023-01-25T00:31:59.631Z,2.10
2023-01-25T00:34:26.977Z,2.00
2023-01-25T00:37:18.518Z,2.00
2023-01-25T00:39:45.996Z,2.10
2023-01-25T00:42:18.675Z,2.20
2023-01-25T00:44:47.279Z,2.20
2023-01-25T00:47:15.632Z,2.10
2023-01-25T00:49:44.306Z,2.00
2023-01-25T00:52:12.482Z,2.00
2023-01-25T00:54:40.097Z,2.00
2023-01-25T00:57:07.581Z,2.00
2023-01-25T00:59:35.679Z,1.90
2023-01-25T01:02:04.114Z,1.80
2023-01-25T01:04:31.974Z,1.80
2023-01-25T01:06:59.587Z,1.80
2023-01-25T01:09:27.199Z,1.90
2023-01-25T01:11:55.136Z,1.90
2023-01-25T01:14:24.441Z,1.90
2023-01-25T01:16:51.975Z,1.90
2023-01-25T01:19:19.538Z,1.80
2023-01-25T01:21:47.087Z,1.80
2023-01-25T01:24:14.550Z,2.00
2023-01-25T01:26:42.084Z,2.00
2023-01-25T01:29:09.532Z,2.10
2023-01-25T01:31:37.198Z,2.10
2023-01-25T01:34:04.685Z,2.10
2023-01-25T01:36:32.285Z,2.10
2023-01-25T01:39:00.294Z,2.00
2023-01-25T01:41:28.069Z,1.80
2023-01-25T01:43:55.615Z,2.00
2023-01-25T01:46:27.634Z,2.00
2023-01-25T01:49:10.162Z,1.90
2023-01-25T01:52:00.695Z,1.80
2023-01-25T01:54:53.995Z,1.80
2023-01-25T01:57:36.274Z,1.70
2023-01-25T02:00:12.581Z,1.70
2023-01-25T02:02:41.640Z,1.90
2023-01-25T02:05:17.986Z,1.90
2023-01-25T02:07:47.552Z,2.00
2023-01-25T02:10:15.007Z,2.00
2023-01-25T02:12:44.384Z,2.00
2023-01-25T02:15:12.790Z,2.00
2023-01-25T02:17:42.018Z,2.00
2023-01-25T02:20:24.214Z,2.10
2023-01-25T02:22:51.516Z,2.00
2023-01-25T02:25:19.312Z,2.00
2023-01-25T02:28:14.802Z,2.00
2023-01-25T02:30:43.535Z,2.00
2023-01-25T02:33:11.735Z,2.00
2023-01-25T02:35:54.520Z,2.00
2023-01-25T02:38:22.613Z,2.00
2023-01-25T02:40:58.239Z,2.00
2023-01-25T02:43:30.190Z,2.00
2023-01-25T02:46:16.765Z,2.00
2023-01-25T02:48:44.475Z,2.00
2023-01-25T02:51:12.669Z,2.00
2023-01-25T02:53:40.297Z,2.00
2023-01-25T02:56:08.254Z,2.00
2023-01-25T02:58:35.744Z,2.00
2023-01-25T03:01:03.265Z,2.00
2023-01-25T03:03:30.693Z,2.00
2023-01-25T03:05:58.113Z,2.00
2023-01-25T03:08:25.553Z,1.90
2023-01-25T03:10:58.348Z,1.90
2023-01-25T03:13:26.627Z,1.80
2023-01-25T03:16:05.109Z,1.90
2023-01-25T03:18:33.746Z,1.80
2023-01-25T03:21:14.475Z,1.90
2023-01-25T03:23:43.522Z,1.90
2023-01-25T03:26:17.721Z,1.80
2023-01-25T03:28:45.600Z,1.80
2023-01-25T03:31:15.428Z,1.80
2023-01-25T03:33:43.644Z,1.70
2023-01-25T03:36:11.511Z,1.70
2023-01-25T03:38:38.954Z,1.70
2023-01-25T03:41:07.422Z,1.70
2023-01-25T03:43:34.905Z,1.80
2023-01-25T03:46:02.837Z,1.80
2023-01-25T03:48:30.686Z,1.90
2023-01-25T03:50:59.846Z,2.00
2023-01-25T03:53:30.290Z,2.00
2023-01-25T03:56:11.947Z,2.10
2023-01-25T03:58:40.645Z,2.00
2023-01-25T04:01:08.774Z,2.00
2023-01-25T04:03:36.606Z,2.10
2023-01-25T04:06:05.727Z,2.10
2023-01-25T04:08:34.050Z,2.10
2023-01-25T04:11:08.570Z,2.00
2023-01-25T04:13:38.128Z,2.00
2023-01-25T04:16:08.499Z,2.10
2023-01-25T04:18:36.153Z,2.00
2023-01-25T04:21:03.729Z,2.00
2023-01-25T04:23:31.553Z,1.90
2023-01-25T04:26:06.601Z,1.90
2023-01-25T04:28:35.737Z,1.80
2023-01-25T04:31:03.874Z,1.60
2023-01-25T04:33:31.350Z,1.60
2023-01-25T04:35:59.155Z,1.60
2023-01-25T04:38:26.854Z,1.60
2023-01-25T04:40:54.301Z,1.60
2023-01-25T04:43:22.554Z,1.60
2023-01-25T04:45:50.036Z,1.60
2023-01-25T04:48:17.507Z,1.60
2023-01-25T04:50:46.349Z,1.70
2023-01-25T04:53:14.173Z,1.70
2023-01-25T04:55:45.817Z,1.80
2023-01-25T04:58:13.716Z,1.80
2023-01-25T05:00:41.153Z,1.80
2023-01-25T05:03:08.679Z,1.90
2023-01-25T05:05:36.128Z,1.80
2023-01-25T05:08:03.563Z,1.80
2023-01-25T05:10:31.005Z,1.70
2023-01-25T05:12:58.467Z,1.60
2023-01-25T05:15:25.969Z,1.60
2023-01-25T05:17:53.569Z,1.60
2023-01-25T05:20:21.003Z,1.50
2023-01-25T05:22:48.435Z,1.50
2023-01-25T05:25:34.600Z,1.60
2023-01-25T05:28:06.944Z,1.70
2023-01-25T05:30:34.582Z,1.70
2023-01-25T05:33:02.299Z,1.60
2023-01-25T05:35:29.759Z,1.50
2023-01-25T05:37:59.348Z,1.60
2023-01-25T05:40:27.474Z,1.70
2023-01-25T05:43:03.055Z,1.70
2023-01-25T05:45:30.544Z,1.70
2023-01-25T05:47:59.670Z,1.70
2023-01-25T05:50:27.944Z,1.70
2023-01-25T05:52:55.455Z,1.90
2023-01-25T05:55:22.996Z,1.90
2023-01-25T05:57:51.282Z,1.80
2023-01-25T06:00:19.249Z,1.70
2023-01-25T06:02:46.808Z,1.70
2023-01-25T06:05:14.452Z,1.70
2023-01-25T06:07:41.915Z,1.70
2023-01-25T06:10:10.237Z,1.70
2023-01-25T06:12:39.529Z,1.80
2023-01-25T06:15:07.987Z,1.80
2023-01-25T06:17:35.491Z,1.70
2023-01-25T06:20:02.953Z,1.70
2023-01-25T06:22:30.707Z,1.70
2023-01-25T06:24:58.172Z,1.70
2023-01-25T06:27:25.613Z,1.70
2023-01-25T06:29:52.998Z,1.80
2023-01-25T06:32:20.759Z,1.90
2023-01-25T06:34:48.277Z,1.90
2023-01-25T06:37:15.710Z,1.90
2023-01-25T06:39:43.179Z,1.90
2023-01-25T06:42:10.580Z,1.70
2023-01-25T06:44:38.207Z,1.70
2023-01-25T06:47:05.958Z,1.80
2023-01-25T06:49:33.396Z,1.80
2023-01-25T06:52:04.166Z,1.70
2023-01-25T06:54:31.700Z,1.70
2023-01-25T06:56:59.678Z,1.60
2023-01-25T06:59:27.079Z,1.60
2023-01-25T07:01:54.582Z,1.60
2023-01-25T07:04:22.052Z,1.70
2023-01-25T07:06:49.520Z,1.60
2023-01-25T07:09:17.163Z,1.50
2023-01-25T07:11:44.589Z,1.40
2023-01-25T07:14:12.037Z,1.40
2023-01-25T07:16:39.575Z,1.40
2023-01-25T07:19:11.640Z,1.50
2023-01-25T07:21:39.284Z,1.60
2023-01-25T07:24:07.174Z,1.80
2023-01-25T07:26:34.816Z,1.70
2023-01-25T07:29:02.272Z,1.70
2023-01-25T07:31:29.739Z,1.80
2023-01-25T07:33:58.964Z,1.80
2023-01-25T07:36:38.899Z,1.90
2023-01-25T07:39:09.877Z,1.80
2023-01-25T07:41:37.347Z,1.80
2023-01-25T07:44:05.147Z,1.80
2023-01-25T07:46:33.653Z,1.80
2023-01-25T07:49:01.124Z,1.80
2023-01-25T07:51:30.980Z,1.90
2023-01-25T07:54:04.556Z,2.00
2023-01-25T07:56:36.660Z,1.90
2023-01-25T07:59:05.074Z,2.00
2023-01-25T08:01:34.697Z,1.90
2023-01-25T08:04:04.014Z,1.80
2023-01-25T08:06:36.301Z,1.80
2023-01-25T08:09:20.059Z,1.80
2023-01-25T08:11:49.541Z,1.80
2023-01-25T08:14:17.141Z,1.80
2023-01-25T08:16:44.721Z,1.80
2023-01-25T08:19:12.640Z,1.90
2023-01-25T08:21:40.142Z,2.00
2023-01-25T08:24:09.658Z,1.90
2023-01-25T08:26:38.043Z,1.90
2023-01-25T08:29:06.656Z,1.90
2023-01-25T08:31:36.126Z,2.00
2023-01-25T08:34:04.461Z,2.00
2023-01-25T08:36:32.610Z,2.00
2023-01-25T08:39:09.306Z,1.90
2023-01-25T08:41:37.175Z,1.90
2023-01-25T08:44:05.265Z,1.90
2023-01-25T08:46:34.111Z,1.90
2023-01-25T08:49:03.006Z,1.90
2023-01-25T08:51:32.615Z,1.80
2023-01-25T08:54:07.184Z,1.80
2023-01-25T08:56:37.903Z,1.80
2023-01-25T08:59:06.315Z,1.70
2023-01-25T09:01:34.490Z,1.80
2023-01-25T09:04:02.049Z,1.80
2023-01-25T09:06:29.558Z,1.80
2023-01-25T09:08:58.870Z,1.80
2023-01-25T09:11:26.374Z,1.80
2023-01-25T09:13:53.947Z,1.90
2023-01-25T09:16:30.804Z,1.90
2023-01-25T09:19:02.416Z,1.80
2023-01-25T09:21:30.854Z,1.80
2023-01-25T09:24:07.318Z,1.80
2023-01-25T09:26:39.327Z,1.90
2023-01-25T09:29:08.349Z,1.90
2023-01-25T09:31:40.789Z,2.00
2023-01-25T09:34:09.307Z,1.90
2023-01-25T09:36:37.593Z,2.00
2023-01-25T09:39:05.334Z,2.00
2023-01-25T09:41:44.284Z,1.90
2023-01-25T09:45:08.154Z,2.00
2023-01-25T09:47:54.228Z,2.00
2023-01-25T09:50:33.447Z,2.10
2023-01-25T09:53:36.974Z,2.10
2023-01-25T09:56:18.282Z,2.10
2023-01-25T09:58:49.646Z,2.20
2023-01-25T10:01:45.045Z,2.30
2023-01-25T10:04:17.245Z,2.20
2023-01-25T10:06:59.746Z,2.20
2023-01-25T10:09:53.766Z,2.20
2023-01-25T10:12:24.190Z,2.10
2023-01-25T10:14:52.519Z,2.10
2023-01-25T10:17:40.135Z,2.10
2023-01-25T10:20:28.230Z,2.20
2023-01-25T10:23:45.829Z,2.30
2023-01-25T10:26:23.781Z,2.20
2023-01-25T10:29:27.754Z,2.40
2023-01-25T10:32:12.494Z,2.40
2023-01-25T10:34:56.332Z,2.30
2023-01-25T10:37:33.225Z,2.30
2023-01-25T10:40:12.841Z,2.50
2023-01-25T10:42:55.438Z,2.70
2023-01-25T10:45:23.159Z,2.90
2023-01-25T10:47:57.482Z,3.00
2023-01-25T10:50:42.891Z,3.00
2023-01-25T10:53:26.363Z,3.10
2023-01-25T10:56:12.649Z,3.10
2023-01-25T10:58:47.123Z,2.90
2023-01-25T11:01:32.493Z,2.80
2023-01-25T11:04:01.804Z,2.90
2023-01-25T11:06:34.264Z,2.90
2023-01-25T11:09:22.183Z,3.10
2023-01-25T11:12:02.129Z,3.30
2023-01-25T11:14:33.956Z,3.40
2023-01-25T11:17:04.792Z,3.20
2023-01-25T11:19:40.746Z,3.30
2023-01-25T11:22:24.280Z,3.20
2023-01-25T11:24:52.119Z,3.20
2023-01-25T11:27:28.150Z,3.10
2023-01-25T11:30:13.297Z,3.00
2023-01-25T11:32:41.478Z,3.10
2023-01-25T11:35:27.993Z,3.00
2023-01-25T11:38:22.542Z,3.00
2023-01-25T11:41:18.485Z,3.00
2023-01-25T11:44:05.735Z,3.10
2023-01-25T11:46:59.286Z,3.00
2023-01-25T11:49:58.979Z,3.10
2023-01-25T11:53:17.295Z,3.00
2023-01-25T11:55:47.907Z,2.90
2023-01-25T11:58:27.336Z,2.80
2023-01-25T12:01:22.344Z,3.00
2023-01-25T12:03:58.577Z,3.00
2023-01-25T12:07:06.244Z,2.80
2023-01-25T12:09:45.463Z,2.80
2023-01-25T12:12:40.858Z,2.70
2023-01-25T12:15:52.899Z,2.70
2023-01-25T12:18:42.047Z,2.80
2023-01-25T12:21:41.080Z,2.60
2023-01-25T12:24:37.726Z,2.50
2023-01-25T12:27:32.356Z,2.50
2023-01-25T12:30:41.477Z,2.60
2023-01-25T12:33:34.700Z,2.80
2023-01-25T12:36:35.976Z,2.70
2023-01-25T12:39:24.672Z,2.70
2023-01-25T12:42:10.101Z,2.70
2023-01-25T12:44:59.574Z,2.60
2023-01-25T12:47:33.252Z,2.60
2023-01-25T12:50:23.814Z,2.80
2023-01-25T12:53:18.576Z,2.60
2023-01-25T12:55:48.324Z,2.60
2023-01-25T12:58:38.031Z,2.70
2023-01-25T13:01:56.695Z,2.70
2023-01-25T13:05:00.852Z,2.70
2023-01-25T13:08:23.085Z,2.80
2023-01-25T13:11:27.231Z,2.90
2023-01-25T13:14:17.720Z,3.00
2023-01-25T13:17:09.306Z,3.10
2023-01-25T13:19:37.042Z,3.20
2023-01-25T13:22:05.351Z,3.20
2023-01-25T13:24:35.653Z,3.20
2023-01-25T13:27:28.275Z,3.10
2023-01-25T13:29:57.633Z,3.10
2023-01-25T13:32:25.041Z,3.10
2023-01-25T13:34:55.110Z,3.10
2023-01-25T13:37:42.872Z,3.10
2023-01-25T13:40:36.742Z,3.00
2023-01-25T13:43:12.768Z,3.00
2023-01-25T13:45:42.330Z,2.90
2023-01-25T13:48:13.192Z,2.90
2023-01-25T13:50:56.106Z,2.90
2023-01-25T13:53:26.957Z,3.00
2023-01-25T13:55:57.572Z,3.00
2023-01-25T13:58:33.609Z,2.90
2023-01-25T14:01:06.540Z,2.80
2023-01-25T14:03:50.598Z,2.70
2023-01-25T14:06:25.037Z,2.60
2023-01-25T14:08:56.158Z,2.80
2023-01-25T14:11:32.071Z,2.70
2023-01-25T14:14:26.423Z,2.60
2023-01-25T14:17:23.420Z,2.50
2023-01-25T14:19:54.769Z,2.40
2023-01-25T14:22:28.581Z,2.40
2023-01-25T14:25:22.807Z,2.40
2023-01-25T14:28:07.008Z,2.50
2023-01-25T14:30:36.608Z,2.50
2023-01-25T14:33:32.654Z,2.60
2023-01-25T14:36:24.147Z,2.60
2023-01-25T14:38:52.901Z,2.60
2023-01-25T14:41:26.367Z,2.70
2023-01-25T14:43:57.881Z,2.60
2023-01-25T14:46:31.895Z,2.50
2023-01-25T14:49:25.665Z,2.50
2023-01-25T14:52:15.806Z,2.50
2023-01-25T14:54:54.963Z,2.60
2023-01-25T14:57:42.463Z,2.50
2023-01-25T15:00:32.244Z,2.60
2023-01-25T15:03:16.186Z,2.60
2023-01-25T15:05:47.365Z,2.60
2023-01-25T15:08:26.471Z,2.60
2023-01-25T15:10:57.600Z,2.60
2023-01-25T15:13:27.990Z,2.50
2023-01-25T15:15:58.956Z,2.50
2023-01-25T15:18:53.423Z,2.50
2023-01-25T15:21:27.705Z,2.40
2023-01-25T15:23:57.516Z,2.40
2023-01-25T15:26:29.747Z,2.40
2023-01-25T15:29:08.425Z,2.40
2023-01-25T15:31:38.363Z,2.40
2023-01-25T15:34:06.740Z,2.40
2023-01-25T15:36:34.381Z,2.30
2023-01-25T15:39:01.840Z,2.30
2023-01-25T15:41:29.257Z,2.30
2023-01-25T15:43:56.656Z,2.30
2023-01-25T15:46:31.918Z,2.20
2023-01-25T15:49:00.541Z,2.30
2023-01-25T15:51:28.735Z,2.30
2023-01-25T15:53:56.112Z,2.40
2023-01-25T15:56:29.306Z,2.40
2023-01-25T15:59:00.879Z,2.30
2023-01-25T16:01:30.265Z,2.40
2023-01-25T16:03:59.830Z,2.40
2023-01-25T16:06:42.132Z,2.30
2023-01-25T16:09:25.527Z,2.30
2023-01-25T16:12:01.705Z,2.30
2023-01-25T16:14:31.696Z,2.30
2023-01-25T16:17:04.195Z,2.30
2023-01-25T16:19:33.325Z,2.30
2023-01-25T16:22:00.904Z,2.30
2023-01-25T16:24:28.350Z,2.30
2023-01-25T16:26:58.453Z,2.30
2023-01-25T16:29:26.698Z,2.30
2023-01-25T16:31:55.100Z,2.30
2023-01-25T16:34:23.197Z,2.30
2023-01-25T16:36:51.362Z,2.30
2023-01-25T16:39:24.887Z,2.30
2023-01-25T16:41:52.509Z,2.30
2023-01-25T16:44:20.286Z,2.30
2023-01-25T16:46:51.345Z,2.20
2023-01-25T16:49:22.779Z,2.20
2023-01-25T16:51:50.951Z,2.10
2023-01-25T16:54:23.665Z,2.10
2023-01-25T16:56:52.991Z,2.10
2023-01-25T16:59:22.456Z,2.10
2023-01-25T17:01:50.004Z,2.10
2023-01-25T17:04:18.140Z,2.10
2023-01-25T17:06:49.413Z,2.10
2023-01-25T17:09:25.441Z,2.10
2023-01-25T17:11:54.893Z,2.10
2023-01-25T17:14:23.306Z,2.10
2023-01-25T17:16:51.898Z,2.10
2023-01-25T17:19:20.760Z,2.10
2023-01-25T17:21:48.890Z,2.10
2023-01-25T17:24:21.137Z,2.00
2023-01-25T17:26:49.003Z,1.90
2023-01-25T17:29:16.594Z,1.90
2023-01-25T17:31:44.643Z,1.80
2023-01-25T17:34:16.238Z,1.90
2023-01-25T17:36:44.709Z,1.90
2023-01-25T17:39:15.634Z,1.80
2023-01-25T17:41:44.942Z,1.80
2023-01-25T17:44:13.695Z,1.80
2023-01-25T17:46:41.246Z,1.80
2023-01-25T17:49:13.823Z,1.80
2023-01-25T17:51:41.299Z,1.90
2023-01-25T17:54:09.996Z,1.90
2023-01-25T17:56:39.541Z,2.00
2023-01-25T17:59:11.885Z,2.00
2023-01-25T18:01:43.074Z,2.00
2023-01-25T18:04:12.876Z,2.00
2023-01-25T18:06:40.503Z,2.00
2023-01-25T18:09:07.911Z,2.00
2023-01-25T18:11:38.028Z,2.00
2023-01-25T18:14:12.966Z,2.00
2023-01-25T18:16:41.746Z,2.00
2023-01-25T18:19:11.117Z,2.00
2023-01-25T18:21:39.363Z,2.00
2023-01-25T18:24:34.528Z,2.00
2023-01-25T18:27:25.167Z,2.00
2023-01-25T18:30:37.418Z,1.90
2023-01-25T18:33:05.770Z,1.90
2023-01-25T18:35:33.252Z,1.90
2023-01-25T18:38:01.406Z,1.90
2023-01-25T18:40:30.581Z,1.90
2023-01-25T18:42:58.496Z,1.90
2023-01-25T18:45:25.940Z,2.00
2023-01-25T18:47:53.387Z,2.00
2023-01-25T18:50:21.098Z,2.00
2023-01-25T18:52:48.572Z,1.90
2023-01-25T18:55:16.018Z,1.90
2023-01-25T18:57:44.397Z,1.90
2023-01-25T19:00:14.805Z,1.80
2023-01-25T19:02:42.396Z,1.80
2023-01-25T19:05:11.146Z,1.80
2023-01-25T19:20:44.502Z,1.40
2023-01-25T19:23:11.982Z,1.30
2023-01-25T19:25:39.427Z,1.30
2023-01-25T19:28:06.838Z,1.30
2023-01-25T19:30:34.260Z,1.20
2023-01-25T19:33:01.674Z,1.20
2023-01-25T19:35:29.104Z,1.20
2023-01-25T19:37:57.099Z,1.20
2023-01-25T19:40:25.255Z,1.20
2023-01-25T19:42:52.664Z,1.20
2023-01-25T19:45:20.159Z,1.20
2023-01-25T19:47:47.612Z,1.20
2023-01-25T19:50:15.139Z,1.30
2023-01-25T19:52:42.639Z,1.40
2023-01-25T19:55:10.733Z,1.30
2023-01-25T19:57:38.603Z,1.30
2023-01-25T20:00:07.107Z,1.20
2023-01-25T20:02:34.576Z,1.30
2023-01-25T20:05:02.004Z,1.40
2023-01-25T20:07:29.453Z,1.40
2023-01-25T20:09:56.890Z,1.40
2023-01-25T20:12:24.312Z,1.40
2023-01-25T20:14:51.840Z,1.40
2023-01-25T20:17:19.364Z,1.30
2023-01-25T20:19:48.006Z,1.30
2023-01-25T20:22:15.410Z,1.30
2023-01-25T20:24:42.917Z,1.40
2023-01-25T20:27:10.465Z,1.50
2023-01-25T20:29:38.123Z,1.40
2023-01-25T20:32:06.061Z,1.30
2023-01-25T20:34:33.506Z,1.40
2023-01-25T20:37:01.039Z,1.40
2023-01-25T20:39:28.471Z,1.40
2023-01-25T20:41:58.508Z,1.40
2023-01-25T20:44:26.632Z,1.40
2023-01-25T20:46:55.568Z,1.40
2023-01-25T20:49:23.281Z,1.30
2023-01-25T20:51:51.115Z,1.30
2023-01-25T20:54:20.486Z,1.30
2023-01-25T20:56:48.243Z,1.20
2023-01-25T20:59:16.775Z,1.30
2023-01-25T21:01:44.226Z,1.30
2023-01-25T21:04:11.934Z,1.20
2023-01-25T21:06:39.415Z,1.20
2023-01-25T21:09:07.293Z,1.20
2023-01-25T21:11:34.973Z,1.10
2023-01-25T21:14:02.402Z,1.00
2023-01-25T21:16:30.290Z,1.00
2023-01-25T21:19:05.483Z,1.00
2023-01-25T21:21:34.963Z,1.00
2023-01-25T21:24:04.932Z,1.00
2023-01-25T21:26:35.067Z,1.00
2023-01-25T21:29:04.255Z,1.00
2023-01-25T21:31:35.228Z,1.00
2023-01-25T21:34:04.988Z,1.00
2023-01-25T21:36:33.261Z,1.00
2023-01-25T21:39:00.758Z,1.10
2023-01-25T21:41:31.013Z,1.10
2023-01-25T21:44:18.911Z,1.10
2023-01-25T21:47:12.596Z,1.10
2023-01-25T21:49:53.491Z,1.00
2023-01-25T21:52:20.982Z,1.00
2023-01-25T21:54:48.656Z,1.00
2023-01-25T21:57:16.165Z,1.00
2023-01-25T21:59:43.652Z,1.20
2023-01-25T22:02:14.657Z,1.30
2023-01-25T22:04:42.303Z,1.30
2023-01-25T22:07:10.499Z,1.30
2023-01-25T22:09:38.028Z,1.30
2023-01-25T22:12:05.760Z,1.20
2023-01-25T22:14:33.244Z,1.20
2023-01-25T22:17:00.667Z,1.20
2023-01-25T22:19:28.155Z,1.20
2023-01-25T22:21:55.550Z,1.30
2023-01-25T22:24:23.139Z,1.40
2023-01-25T22:27:08.462Z,1.30
2023-01-25T22:29:35.854Z,1.20
2023-01-25T22:32:03.448Z,1.30
2023-01-25T22:34:30.854Z,1.30
2023-01-25T22:36:58.347Z,1.30
2023-01-25T22:39:25.883Z,1.30
2023-01-25T22:41:53.395Z,1.30
2023-01-25T22:44:20.781Z,1.30
2023-01-25T22:46:48.849Z,1.30
2023-01-25T22:49:16.344Z,1.30
2023-01-25T22:51:43.776Z,1.40
2023-01-25T22:54:11.246Z,1.40
2023-01-25T22:56:39.617Z,1.40
2023-01-25T22:59:09.368Z,1.40
2023-01-25T23:01:36.844Z,1.30
2023-01-25T23:04:04.653Z,1.30
2023-01-25T23:06:34.503Z,1.30
2023-01-25T23:09:05.689Z,1.20
2023-01-25T23:11:37.568Z,1.20
2023-01-25T23:14:27.297Z,1.20
2023-01-25T23:17:15.041Z,1.20
2023-01-25T23:19:42.492Z,1.20
2023-01-25T23:22:09.973Z,1.30
2023-01-25T23:24:37.559Z,1.30
2023-01-25T23:27:05.061Z,1.30
2023-01-25T23:29:32.895Z,1.40
2023-01-25T23:32:00.431Z,1.30
2023-01-25T23:34:28.059Z,1.30
2023-01-25T23:36:55.466Z,1.30
2023-01-25T23:39:23.819Z,1.30
2023-01-25T23:41:52.549Z,1.30
2023-01-25T23:44:19.989Z,1.20
2023-01-25T23:46:47.973Z,1.30
2023-01-25T23:49:15.395Z,1.30
2023-01-25T23:51:42.799Z,1.30
2023-01-25T23:54:10.243Z,1.30
2023-01-25T23:56:37.679Z,1.20
2023-01-25T23:59:05.171Z,1.20
